Alva, Mississippi
Current Conditions -  °F | °C
As of 6:53 AM on Tuesday 21 Oct 2014 (Local Time) from KGWO Reporting Station
Clear Clear  
Wind Chill:   Ceiling: Unl
Heat Index:   Visibility: 10mi
Dew Point:   Wind: 3mph
Humidity: 93%   Direction: 40°NE
Pressure: 30.07"   Gusts: NA
Location:  33.6702°N, 89.6861°W
Report Text: KGWO 211153Z AUTO 04003KT 10SM CLR 09/08 A3007 RMK AO2 SLP181 T00890078 10111 20089 53010 TSNO
Loading
Personal Weather Stations






























Interactive Weather Map
Tropical Storm Tracking
New forecast layout! Learn more

10-Day Weather Forecast

Advertisements
Track Severe Weather on mobile